Time;durP1;ratioP1;P1;durP2;ratioP2;P2;SDS_P1;SDS_P2;PMS_P1;PMS_P2;Temp;Humidity;BMP_temperature;BMP_pressure;BME280_temperature;BME280_humidity;BME280_pressure;Samples;Min_cycle;Max_cycle;Signal;HPM_P1;HPM_P2
2022/07/04 00:00:26;;;;;;;7.15;3.10;;;;;;;14.31;100.00;101980.72;4997047;28;20456;-49
2022/07/04 00:02:52;;;;;;;7.28;3.20;;;;;;;14.36;100.00;101977.59;4996224;28;20054;-46
2022/07/04 00:05:18;;;;;;;6.60;3.08;;;;;;;14.34;100.00;101977.75;4997317;28;20026;-47
2022/07/04 00:07:48;;;;;;;11.55;3.10;;;;;;;14.34;100.00;101980.44;4996880;28;20430;-47
2022/07/04 00:10:16;;;;;;;8.43;3.15;;;;;;;14.30;100.00;101973.66;4996961;28;20108;-46
2022/07/04 00:12:42;;;;;;;8.70;3.28;;;;;;;14.32;100.00;101977.06;4996217;28;20163;-47
2022/07/04 00:15:09;;;;;;;4.63;2.85;;;;;;;14.28;100.00;101985.59;4996562;28;20489;-48
2022/07/04 00:17:34;;;;;;;11.07;3.33;;;;;;;14.27;100.00;101989.25;4995738;28;20022;-47
2022/07/04 00:20:00;;;;;;;9.23;3.20;;;;;;;14.21;100.00;101980.00;4996848;28;20064;-48
2022/07/04 00:22:25;;;;;;;6.85;3.30;;;;;;;14.18;100.00;101981.13;4996556;28;20026;-48
2022/07/04 00:24:51;;;;;;;6.32;3.22;;;;;;;14.16;100.00;101977.78;4996364;28;20060;-46
2022/07/04 00:27:17;;;;;;;11.32;3.50;;;;;;;14.08;100.00;101964.28;4996255;28;20040;-47
2022/07/04 00:29:42;;;;;;;6.78;3.47;;;;;;;14.06;100.00;101971.66;4996925;28;20507;-47
2022/07/04 00:32:08;;;;;;;7.82;3.30;;;;;;;14.02;100.00;101964.06;4996176;28;20025;-47
2022/07/04 00:34:33;;;;;;;6.53;3.60;;;;;;;14.01;100.00;101965.06;4996360;28;20030;-47
2022/07/04 00:36:59;;;;;;;7.43;3.80;;;;;;;14.00;100.00;101969.56;4979329;28;20134;-46
2022/07/04 00:39:24;;;;;;;10.93;3.50;;;;;;;13.95;100.00;101967.38;4996986;28;20064;-46
2022/07/04 00:41:49;;;;;;;8.55;3.70;;;;;;;13.88;100.00;101966.28;4995855;28;20045;-48
2022/07/04 00:44:15;;;;;;;8.48;3.63;;;;;;;13.92;100.00;101972.22;4996985;28;20482;-47
2022/07/04 00:46:45;;;;;;;9.50;4.20;;;;;;;13.88;100.00;101968.97;4996370;28;20485;-48
2022/07/04 00:49:11;;;;;;;8.50;3.70;;;;;;;13.89;100.00;101973.38;4995452;28;20026;-46
2022/07/04 00:51:38;;;;;;;6.32;3.55;;;;;;;13.85;100.00;101968.44;4996750;28;20072;-47
2022/07/04 00:54:05;;;;;;;8.13;3.58;;;;;;;13.86;100.00;101973.66;4996441;28;20143;-45
2022/07/04 00:56:31;;;;;;;7.35;3.95;;;;;;;13.88;100.00;101968.97;4995736;28;20083;-48
2022/07/04 00:58:58;;;;;;;8.77;3.78;;;;;;;13.87;100.00;101966.47;4996798;28;20034;-47
2022/07/04 01:01:24;;;;;;;6.10;3.47;;;;;;;13.87;100.00;101969.16;4996143;28;20030;-47
2022/07/04 01:03:49;;;;;;;4.90;3.50;;;;;;;13.85;100.00;101965.75;4995868;28;20033;-45
2022/07/04 01:06:15;;;;;;;8.57;3.25;;;;;;;13.87;100.00;101964.63;4998524;28;20025;-45
2022/07/04 01:08:42;;;;;;;5.75;3.47;;;;;;;13.83;100.00;101965.91;5000324;28;20030;-46
2022/07/04 01:11:09;;;;;;;8.02;3.22;;;;;;;13.83;100.00;101963.22;4998495;28;20143;-47
2022/07/04 01:13:34;;;;;;;7.22;3.25;;;;;;;13.79;100.00;101960.03;5000073;28;20101;-49
2022/07/04 01:16:00;;;;;;;6.50;3.25;;;;;;;13.80;100.00;101952.81;4999497;28;20507;-49
2022/07/04 01:18:26;;;;;;;7.43;3.38;;;;;;;13.77;100.00;101951.28;4999234;28;20102;-49
2022/07/04 01:20:51;;;;;;;9.40;3.45;;;;;;;13.75;100.00;101944.41;4991479;28;20195;-46
2022/07/04 01:23:17;;;;;;;8.82;3.58;;;;;;;13.74;100.00;101940.84;4998613;28;20120;-47
2022/07/04 01:25:43;;;;;;;7.05;3.40;;;;;;;13.71;100.00;101948.38;4999235;28;20063;-47
2022/07/04 01:28:09;;;;;;;6.88;3.17;;;;;;;13.62;100.00;101950.16;4998732;28;20117;-48
2022/07/04 01:30:36;;;;;;;6.72;3.42;;;;;;;13.50;100.00;101946.00;4999864;28;20455;-45
2022/07/04 01:33:01;;;;;;;6.45;3.50;;;;;;;13.35;100.00;101943.00;5000134;28;20033;-46
2022/07/04 01:35:26;;;;;;;11.23;3.45;;;;;;;13.20;100.00;101942.66;4998349;28;20032;-48
2022/07/04 01:37:52;;;;;;;5.53;3.55;;;;;;;13.07;100.00;101935.81;4998993;28;20028;-45
2022/07/04 01:40:17;;;;;;;9.38;3.55;;;;;;;13.00;100.00;101941.91;4998967;28;20022;-47
2022/07/04 01:42:43;;;;;;;8.43;3.78;;;;;;;12.94;100.00;101934.50;4998796;28;20026;-50
2022/07/04 01:45:09;;;;;;;6.63;3.60;;;;;;;12.87;100.00;101940.44;4998806;28;20030;-48
2022/07/04 01:47:35;;;;;;;10.40;3.78;;;;;;;12.87;100.00;101936.94;4998984;28;20022;-46
2022/07/04 01:50:01;;;;;;;10.75;3.88;;;;;;;12.88;100.00;101938.59;4999303;28;20037;-47
2022/07/04 01:52:27;;;;;;;8.50;3.80;;;;;;;12.83;100.00;101943.56;4998041;28;20492;-51
2022/07/04 01:54:52;;;;;;;8.68;3.88;;;;;;;12.86;100.00;101937.91;4998655;28;20029;-48
2022/07/04 01:57:18;;;;;;;8.95;4.25;;;;;;;12.93;100.00;101933.63;4998219;28;20022;-46
2022/07/04 02:02:27;;;;;;;8.32;4.05;;;;;;;13.04;100.00;101921.88;4997879;28;20068;-51
2022/07/04 02:04:53;;;;;;;8.35;3.80;;;;;;;13.06;100.00;101922.56;4964726;28;20045;-46
2022/07/04 02:07:18;;;;;;;13.30;4.18;;;;;;;13.09;100.00;101933.00;4998661;28;20190;-48
2022/07/04 02:09:44;;;;;;;13.50;4.53;;;;;;;13.15;100.00;101924.34;4998998;28;20107;-49
2022/07/04 02:14:53;;;;;;;9.15;4.40;;;;;;;13.15;100.00;101923.50;4998100;28;20549;-47
2022/07/04 02:17:18;;;;;;;12.38;3.95;;;;;;;13.20;100.00;101921.19;4998182;28;20034;-48
2022/07/04 02:19:44;;;;;;;8.10;4.20;;;;;;;13.17;100.00;101919.66;4999138;28;20057;-45
2022/07/04 02:22:09;;;;;;;9.60;4.15;;;;;;;13.14;100.00;101927.19;4980485;28;20044;-48
2022/07/04 02:24:34;;;;;;;7.50;4.20;;;;;;;13.12;100.00;101918.41;4998526;28;20053;-49
2022/07/04 02:27:00;;;;;;;10.15;4.88;;;;;;;13.14;100.00;101919.97;4998412;28;20026;-46
2022/07/04 02:29:25;;;;;;;5.90;4.20;;;;;;;13.13;100.00;101920.94;4998534;28;20114;-46
2022/07/04 02:31:51;;;;;;;8.15;4.50;;;;;;;13.05;100.00;101923.53;4997133;28;20121;-46
2022/07/04 02:34:16;;;;;;;11.40;4.00;;;;;;;12.97;100.00;101926.16;4998753;28;20064;-47
2022/07/04 02:36:41;;;;;;;7.35;4.43;;;;;;;12.80;100.00;101930.47;4998511;28;20445;-45
2022/07/04 02:39:07;;;;;;;9.40;4.40;;;;;;;12.71;100.00;101937.56;4998392;28;20080;-46
2022/07/04 02:41:33;;;;;;;9.10;4.00;;;;;;;12.59;100.00;101933.38;4997685;28;20049;-46
2022/07/04 02:43:59;;;;;;;9.75;4.30;;;;;;;12.52;100.00;101934.97;4998243;28;20088;-47
2022/07/04 02:46:24;;;;;;;8.55;4.40;;;;;;;12.51;100.00;101928.78;4997498;28;20029;-46
2022/07/04 02:48:49;;;;;;;5.55;4.28;;;;;;;12.53;100.00;101928.63;4997065;28;20473;-46
2022/07/04 02:51:15;;;;;;;11.95;4.47;;;;;;;12.62;100.00;101931.25;4993690;28;20337;-46
2022/07/04 02:53:40;;;;;;;6.18;4.10;;;;;;;12.66;100.00;101937.16;4998660;28;20044;-45
2022/07/04 02:56:06;;;;;;;12.48;4.18;;;;;;;12.68;100.00;101930.66;4996966;28;20036;-46
2022/07/04 02:58:32;;;;;;;7.30;4.05;;;;;;;12.72;100.00;101933.06;4998869;28;20018;-45
2022/07/04 03:00:58;;;;;;;6.97;4.10;;;;;;;12.72;100.00;101939.25;4997839;28;20238;-46
2022/07/04 03:03:24;;;;;;;12.50;4.55;;;;;;;12.71;100.00;101932.19;4997009;28;20033;-49
2022/07/04 03:05:49;;;;;;;6.50;4.38;;;;;;;12.72;100.00;101938.41;4997757;28;20100;-45
2022/07/04 03:08:14;;;;;;;8.50;4.28;;;;;;;12.69;100.00;101943.09;4998371;28;20137;-46
2022/07/04 03:10:40;;;;;;;11.00;4.68;;;;;;;12.66;100.00;101946.06;4996830;28;20547;-48
2022/07/04 03:13:05;;;;;;;12.63;4.50;;;;;;;12.65;100.00;101951.56;4997965;28;20034;-45
2022/07/04 03:15:31;;;;;;;6.65;4.43;;;;;;;12.66;100.00;101946.06;4998220;28;20037;-46
2022/07/04 03:17:56;;;;;;;9.30;4.38;;;;;;;12.64;100.00;101953.41;4997512;28;20026;-49
2022/07/04 03:20:22;;;;;;;10.68;4.63;;;;;;;12.59;100.00;101955.69;4996912;28;20441;-50
2022/07/04 03:22:47;;;;;;;8.73;4.35;;;;;;;12.49;100.00;101957.53;4979784;28;20056;-46
2022/07/04 03:25:12;;;;;;;8.88;4.30;;;;;;;12.43;100.00;101958.97;4997236;28;20048;-46
2022/07/04 03:27:37;;;;;;;10.95;4.63;;;;;;;12.37;100.00;101954.19;4996828;28;20465;-44
2022/07/04 03:30:03;;;;;;;27.42;4.95;;;;;;;12.32;100.00;101960.00;4997755;28;20029;-49
2022/07/04 03:32:28;;;;;;;12.38;4.60;;;;;;;12.32;100.00;101965.34;4997683;28;20042;-46
2022/07/04 03:34:54;;;;;;;10.82;4.40;;;;;;;12.32;100.00;101962.69;4997576;28;20025;-50
2022/07/04 03:37:19;;;;;;;10.20;4.50;;;;;;;12.31;100.00;101963.66;4978418;28;20446;-46
2022/07/04 03:39:44;;;;;;;8.45;4.32;;;;;;;12.31;100.00;101968.19;4985352;28;20026;-46
2022/07/04 03:42:09;;;;;;;7.15;4.40;;;;;;;12.28;100.00;101963.94;4996651;28;20128;-46
2022/07/04 03:44:35;;;;;;;9.57;4.75;;;;;;;12.25;100.00;101966.06;4997038;28;20036;-48
2022/07/04 03:47:01;;;;;;;11.25;4.57;;;;;;;12.22;100.00;101969.91;4997885;28;20030;-47
2022/07/04 03:49:26;;;;;;;13.40;4.60;;;;;;;12.23;100.00;101976.09;4997426;28;20111;-46
2022/07/04 03:51:51;;;;;;;8.05;4.28;;;;;;;12.18;100.00;101981.03;4997087;28;20030;-48
2022/07/04 03:54:17;;;;;;;8.55;4.47;;;;;;;12.18;100.00;101992.56;4996830;28;20496;-47
2022/07/04 03:56:42;;;;;;;10.52;4.45;;;;;;;12.20;100.00;101995.94;4996303;28;20029;-46
2022/07/04 03:59:07;;;;;;;8.93;4.30;;;;;;;12.20;100.00;101992.44;4997557;28;20670;-47
2022/07/04 04:01:33;;;;;;;7.43;4.90;;;;;;;12.25;100.00;101990.16;4997824;28;20670;-46
2022/07/04 04:06:42;;;;;;;9.13;4.45;;;;;;;12.34;100.00;101977.75;4987125;28;20061;-47
2022/07/04 04:09:12;;;;;;;6.68;4.38;;;;;;;12.37;100.00;101996.22;4991592;28;20462;-47
2022/07/04 04:11:37;;;;;;;11.10;4.88;;;;;;;12.39;100.00;101992.41;4986909;28;20041;-47
2022/07/04 04:14:02;;;;;;;10.90;4.60;;;;;;;12.41;100.00;101987.75;4997787;28;20091;-46
2022/07/04 04:16:28;;;;;;;7.97;4.72;;;;;;;12.50;100.00;101999.44;4995604;28;20025;-46
2022/07/04 04:18:53;;;;;;;7.70;4.55;;;;;;;12.56;100.00;101998.00;4997161;28;20362;-46
2022/07/04 04:21:18;;;;;;;11.50;4.88;;;;;;;12.60;100.00;102004.75;4996782;28;20362;-47
2022/07/04 04:23:44;;;;;;;9.63;4.50;;;;;;;12.66;100.00;101988.94;4996961;28;20068;-46
2022/07/04 04:26:09;;;;;;;9.45;4.68;;;;;;;12.71;100.00;102001.88;4995013;28;20101;-45
2022/07/04 04:28:34;;;;;;;12.10;4.68;;;;;;;12.71;100.00;102001.88;4997535;28;20230;-47
2022/07/04 04:31:00;;;;;;;11.35;4.85;;;;;;;12.71;100.00;101996.53;4997147;28;20021;-46
2022/07/04 04:33:25;;;;;;;9.95;4.75;;;;;;;12.76;100.00;101999.59;4996840;28;20021;-45
2022/07/04 04:35:50;;;;;;;18.50;4.90;;;;;;;12.77;100.00;101998.63;4996962;28;20060;-47
2022/07/04 04:38:16;;;;;;;10.98;4.80;;;;;;;12.78;100.00;101999.47;4995775;28;20022;-45
2022/07/04 04:40:41;;;;;;;9.15;4.63;;;;;;;12.83;100.00;102000.72;4997650;28;20060;-44
2022/07/04 04:43:06;;;;;;;14.02;5.10;;;;;;;12.88;100.00;101997.59;4999926;28;20034;-48
2022/07/04 04:45:31;;;;;;;14.00;4.55;;;;;;;12.86;100.00;101986.16;5001560;28;20022;-44
2022/07/04 04:47:57;;;;;;;14.60;5.03;;;;;;;12.92;100.00;101998.16;5000438;28;20025;-46
2022/07/04 04:50:22;;;;;;;15.27;4.85;;;;;;;12.95;100.00;101997.84;5000397;28;20022;-45
2022/07/04 04:52:47;;;;;;;18.00;5.45;;;;;;;12.93;100.00;101997.97;5001201;28;20103;-46
2022/07/04 04:55:13;;;;;;;15.82;5.25;;;;;;;12.94;100.00;101999.69;4999385;28;20609;-63
2022/07/04 04:57:38;;;;;;;15.80;5.75;;;;;;;12.94;100.00;101999.69;4991025;28;20022;-46
2022/07/04 05:00:04;;;;;;;12.73;5.78;;;;;;;12.98;100.00;102002.91;4997149;28;20068;-45
2022/07/04 05:02:30;;;;;;;18.05;6.30;;;;;;;13.00;100.00;102004.47;5006421;28;20029;-45
2022/07/04 05:04:55;;;;;;;12.23;5.95;;;;;;;13.04;100.00;102003.16;5016286;28;20102;-46
2022/07/04 05:07:21;;;;;;;15.45;6.20;;;;;;;13.07;100.00;101997.50;5003922;28;20266;-50
2022/07/04 05:09:46;;;;;;;14.95;6.13;;;;;;;13.12;100.00;101997.06;5008661;28;20030;-49
2022/07/04 05:12:12;;;;;;;12.82;6.25;;;;;;;13.15;100.00;101998.59;5000645;28;20046;-47
2022/07/04 05:14:38;;;;;;;17.35;6.85;;;;;;;13.19;100.00;101991.94;4998868;28;20029;-48
2022/07/04 05:17:03;;;;;;;15.85;6.57;;;;;;;13.22;100.00;101989.81;5000545;28;20044;-46
2022/07/04 05:19:29;;;;;;;10.90;6.38;;;;;;;13.28;100.00;101996.41;4993912;28;20026;-47
2022/07/04 05:21:54;;;;;;;19.13;6.50;;;;;;;13.31;100.00;101987.22;4971726;28;20033;-46
2022/07/04 05:24:20;;;;;;;9.57;6.60;;;;;;;13.37;100.00;101992.84;4997271;28;20448;-48
2022/07/04 05:26:45;;;;;;;13.07;6.95;;;;;;;13.43;100.00;101994.09;4998346;28;20033;-46
2022/07/04 05:29:10;;;;;;;12.63;6.13;;;;;;;13.55;100.00;102006.28;4998019;28;20033;-45
2022/07/04 05:31:36;;;;;;;14.15;6.38;;;;;;;13.62;100.00;102004.66;4996500;28;20032;-47
2022/07/04 05:34:01;;;;;;;9.25;6.03;;;;;;;13.71;100.00;102010.94;4991981;28;20025;-49
2022/07/04 05:36:27;;;;;;;13.50;6.50;;;;;;;13.80;100.00;102012.72;4998737;28;20029;-48
2022/07/04 05:38:53;;;;;;;17.75;5.95;;;;;;;13.87;100.00;102021.03;4999895;28;20368;-44
2022/07/04 05:41:18;;;;;;;15.65;6.03;;;;;;;13.92;100.00;102018.72;4989620;28;20041;-48
2022/07/04 05:43:43;;;;;;;11.82;5.70;;;;;;;14.00;100.00;102023.28;4999042;28;20036;-47
2022/07/04 05:46:09;;;;;;;16.88;5.78;;;;;;;14.12;100.00;102024.78;4997973;28;20030;-45
2022/07/04 05:48:34;;;;;;;12.68;5.22;;;;;;;14.23;100.00;102036.28;4999983;28;20071;-46
2022/07/04 05:51:00;;;;;;;10.20;5.45;;;;;;;14.33;100.00;102024.41;5000310;28;20018;-46
2022/07/04 05:53:25;;;;;;;14.57;5.43;;;;;;;14.41;100.00;102030.84;5011476;28;20029;-45
2022/07/04 05:55:50;;;;;;;9.48;5.20;;;;;;;14.47;100.00;102027.53;4995584;28;20075;-48
2022/07/04 05:58:16;;;;;;;14.90;6.10;;;;;;;14.53;100.00;102022.38;4999178;28;20385;-48
2022/07/04 06:00:41;;;;;;;14.13;6.18;;;;;;;14.60;100.00;102028.00;4999670;28;20578;-45
2022/07/04 06:03:07;;;;;;;15.30;5.65;;;;;;;14.71;100.00;102024.19;4994548;28;20115;-48
2022/07/04 06:05:33;;;;;;;13.52;5.35;;;;;;;14.83;100.00;102039.03;5000137;28;20037;-48
2022/07/04 06:07:58;;;;;;;14.40;5.57;;;;;;;15.01;100.00;102043.50;4997803;28;20113;-45
2022/07/04 06:10:24;;;;;;;11.70;5.35;;;;;;;15.10;100.00;102038.00;4990755;28;20065;-47
2022/07/04 06:12:49;;;;;;;15.07;5.90;;;;;;;15.19;100.00;102038.03;4992140;28;20033;-49
2022/07/04 06:15:15;;;;;;;14.50;5.60;;;;;;;15.32;100.00;102045.66;4997616;28;20037;-45
2022/07/04 06:17:40;;;;;;;12.27;5.30;;;;;;;15.41;100.00;102039.28;4999161;28;20060;-47
2022/07/04 06:20:07;;;;;;;13.40;5.40;;;;;;;15.43;100.00;102035.44;5000822;28;20042;-47
2022/07/04 06:22:46;;;;;;;11.02;5.43;;;;;;;15.54;100.00;102036.94;5002606;28;20038;-46
2022/07/04 06:25:12;;;;;;;13.98;5.30;;;;;;;15.76;100.00;102026.59;4997981;28;20488;-45
2022/07/04 06:27:38;;;;;;;10.30;4.60;;;;;;;15.98;100.00;102023.25;5007137;28;20236;-45
2022/07/04 06:30:05;;;;;;;12.18;4.43;;;;;;;16.25;100.00;102032.00;4996583;28;20212;-47
2022/07/04 06:32:30;;;;;;;10.30;4.63;;;;;;;16.44;100.00;102028.09;5005948;28;21212;-46
2022/07/04 06:37:39;;;;;;;11.45;4.40;;;;;;;16.63;100.00;102032.28;4998446;28;20468;-44
2022/07/04 06:40:05;;;;;;;8.50;4.05;;;;;;;16.64;100.00;102031.28;4996480;28;20058;-46
2022/07/04 06:42:31;;;;;;;11.70;4.72;;;;;;;16.68;100.00;102029.91;4998559;28;20025;-46
2022/07/04 06:44:56;;;;;;;13.80;4.38;;;;;;;16.89;100.00;102018.59;4997155;28;20025;-46
2022/07/04 06:47:21;;;;;;;10.80;4.60;;;;;;;17.12;100.00;102025.91;4997696;28;20037;-48
2022/07/04 06:49:46;;;;;;;14.13;4.40;;;;;;;17.34;99.89;102030.53;4998076;28;20060;-47
2022/07/04 06:52:12;;;;;;;8.80;3.97;;;;;;;17.62;99.83;102021.94;4998078;28;20091;-48
2022/07/04 06:54:37;;;;;;;10.88;4.47;;;;;;;17.67;96.67;102026.81;4997578;28;20115;-45
2022/07/04 06:57:03;;;;;;;18.00;4.18;;;;;;;17.48;97.94;102026.25;4997207;28;20164;-45
2022/07/04 06:59:28;;;;;;;13.30;4.70;;;;;;;17.20;98.45;102016.94;4997010;28;20040;-46
2022/07/04 07:01:53;;;;;;;17.73;4.53;;;;;;;16.94;100.00;102023.47;4997428;28;20022;-46
2022/07/04 07:04:18;;;;;;;9.57;4.03;;;;;;;16.77;100.00;102033.44;4996838;28;20030;-45
2022/07/04 07:06:44;;;;;;;17.17;4.13;;;;;;;16.68;100.00;102029.06;4996126;28;20049;-46
2022/07/04 07:09:09;;;;;;;10.85;3.88;;;;;;;16.65;100.00;102024.00;4994595;28;20052;-47
2022/07/04 07:11:34;;;;;;;10.02;4.40;;;;;;;16.67;100.00;102030.09;4986321;28;20468;-46
2022/07/04 07:14:00;;;;;;;11.45;4.40;;;;;;;16.90;100.00;102033.75;5009162;28;20273;-45
2022/07/04 07:16:25;;;;;;;13.52;4.63;;;;;;;17.20;100.00;102033.97;5012814;28;20017;-47
2022/07/04 07:18:51;;;;;;;12.27;4.38;;;;;;;17.53;100.00;102039.19;5012200;28;20100;-46
2022/07/04 07:21:16;;;;;;;17.77;4.43;;;;;;;17.71;98.69;102038.94;4995446;28;20021;-45
2022/07/04 07:23:42;;;;;;;11.45;4.50;;;;;;;17.75;97.18;102032.13;5015479;28;20494;-47
2022/07/04 07:26:09;;;;;;;14.10;4.63;;;;;;;17.96;98.72;102033.38;5013510;28;20612;-47
2022/07/04 07:28:34;;;;;;;11.43;4.60;;;;;;;18.09;97.20;102030.88;5016692;28;20029;-49
2022/07/04 07:31:01;;;;;;;25.13;4.75;;;;;;;18.17;97.08;102036.22;5001272;28;20048;-47
2022/07/04 07:33:26;;;;;;;15.05;4.97;;;;;;;18.13;96.31;102034.94;4995851;28;20022;-46
2022/07/04 07:35:51;;;;;;;14.68;5.43;;;;;;;18.07;97.30;102031.09;4996593;28;20553;-47
2022/07/04 07:38:17;;;;;;;17.23;5.13;;;;;;;18.02;99.12;102021.84;4996009;28;20132;-46
2022/07/04 07:40:42;;;;;;;15.73;5.35;;;;;;;18.05;98.42;102022.31;4992557;28;20038;-55
2022/07/04 07:43:08;;;;;;;20.17;5.05;;;;;;;18.20;99.97;102029.63;4997227;28;20034;-46
2022/07/04 07:45:33;;;;;;;14.38;5.25;;;;;;;18.32;99.09;102022.75;5008916;28;20389;-45
2022/07/04 07:47:59;;;;;;;16.30;5.30;;;;;;;18.42;97.89;102007.09;4998999;28;20183;-49
2022/07/04 07:50:24;;;;;;;14.43;4.68;;;;;;;18.44;95.78;102021.28;5002921;28;20214;-45
2022/07/04 07:52:49;;;;;;;17.48;4.68;;;;;;;18.41;95.07;102010.84;5016269;28;20116;-51
2022/07/04 07:55:15;;;;;;;10.63;4.00;;;;;;;18.57;96.99;102009.00;5007557;28;20283;-47
2022/07/04 07:57:40;;;;;;;14.43;3.95;;;;;;;18.68;94.41;102011.22;5007126;28;20060;-49
2022/07/04 08:00:06;;;;;;;15.35;4.30;;;;;;;18.83;93.22;102011.25;5008260;28;20033;-47
2022/07/04 08:05:15;;;;;;;11.88;3.40;;;;;;;18.99;91.00;102010.19;4997271;28;20496;-48
2022/07/04 08:07:40;;;;;;;14.20;4.10;;;;;;;19.05;93.51;102008.63;5003994;28;20030;-50
2022/07/04 08:10:06;;;;;;;12.57;3.50;;;;;;;19.27;93.16;102017.66;4989597;28;20080;-51
2022/07/04 08:12:32;;;;;;;11.27;3.67;;;;;;;19.28;91.22;102022.00;4995513;28;20504;-47
2022/07/04 08:14:57;;;;;;;11.85;3.53;;;;;;;19.24;90.67;102021.56;4998501;28;20030;-46
2022/07/04 08:17:23;;;;;;;9.77;3.42;;;;;;;19.32;91.20;102012.50;5000278;28;20097;-47
2022/07/04 08:19:48;;;;;;;14.10;3.30;;;;;;;19.44;90.54;102032.63;5011541;28;20021;-48
2022/07/04 08:22:13;;;;;;;11.25;2.95;;;;;;;19.50;89.14;102026.47;5006501;28;20400;-48
2022/07/04 08:24:39;;;;;;;8.60;2.83;;;;;;;19.54;87.48;102024.22;5000618;28;20103;-47
2022/07/04 08:27:04;;;;;;;8.55;2.50;;;;;;;19.55;86.21;102032.16;5000888;28;20029;-50
2022/07/04 08:29:32;;;;;;;10.25;3.00;;;;;;;19.60;87.63;102028.84;5000438;28;20631;-45
2022/07/04 08:31:57;;;;;;;13.23;3.30;;;;;;;19.77;88.09;102050.31;5006102;28;20069;-50
2022/07/04 08:34:23;;;;;;;9.95;2.97;;;;;;;19.93;87.29;102033.81;5017663;28;20064;-47
2022/07/04 08:36:48;;;;;;;9.77;3.17;;;;;;;19.90;87.36;102031.47;5000534;28;20014;-50
2022/07/04 08:39:13;;;;;;;11.90;3.42;;;;;;;20.18;88.88;102027.94;4993106;28;20720;-48
2022/07/04 08:41:40;;;;;;;11.95;3.10;;;;;;;20.21;86.37;102033.81;4999764;28;20034;-49
2022/07/04 08:44:10;;;;;;;16.48;4.00;;;;;;;20.35;87.73;102040.22;5013321;28;20187;-49
2022/07/04 08:46:38;;;;;;;14.55;4.35;;;;;;;20.52;86.97;102039.91;5018674;28;20253;-51
2022/07/04 08:49:14;;;;;;;16.00;4.63;;;;;;;20.58;86.92;102037.22;4999705;28;20029;-51
2022/07/04 08:51:55;;;;;;;14.85;4.30;;;;;;;20.85;86.88;102040.97;5017984;28;20014;-51
2022/07/04 08:59:55;;;;;;;16.40;3.70;;;;;;;21.17;84.60;102025.03;4985032;28;20056;-48
2022/07/04 09:02:21;;;;;;;13.80;3.75;;;;;;;21.29;80.79;102030.75;4965376;28;20537;-50
2022/07/04 09:04:49;;;;;;;11.10;3.33;;;;;;;21.46;79.38;102031.22;5000681;28;20018;-49
2022/07/04 09:07:14;;;;;;;10.52;3.10;;;;;;;21.74;78.55;102030.25;5001806;28;20064;-45
2022/07/04 09:09:41;;;;;;;9.88;3.20;;;;;;;21.77;78.84;102032.56;5002154;28;20314;-49
2022/07/04 09:12:10;;;;;;;13.43;4.22;;;;;;;21.77;78.47;102036.09;4999407;28;20022;-48
2022/07/04 09:14:36;;;;;;;13.32;3.10;;;;;;;22.01;78.23;102033.84;4981086;28;20026;-49
2022/07/04 09:17:02;;;;;;;12.15;2.53;;;;;;;22.26;75.02;102034.06;4999482;28;20029;-50
2022/07/04 09:19:27;;;;;;;8.65;2.40;;;;;;;22.28;66.35;102031.97;4999941;28;20018;-48
2022/07/04 09:21:52;;;;;;;6.72;1.90;;;;;;;22.27;64.14;102029.47;5007403;28;20365;-51
2022/07/04 09:24:43;;;;;;;7.57;3.25;;;;;;;22.18;65.80;102034.25;4964961;28;20519;-51
2022/07/04 09:27:09;;;;;;;12.57;3.33;;;;;;;21.93;61.66;102032.16;4998225;28;20445;-49
2022/07/04 09:29:50;;;;;;;10.48;2.17;;;;;;;22.14;61.31;102027.56;4998191;28;20277;-50
2022/07/04 09:32:24;;;;;;;6.30;1.70;;;;;;;22.33;61.39;102028.63;4999226;28;20333;-47
2022/07/04 09:34:56;;;;;;;6.90;2.45;;;;;;;22.37;60.96;102037.22;5012191;28;20360;-47
2022/07/04 09:37:21;;;;;;;8.50;2.35;;;;;;;22.49;60.32;102022.75;5015881;28;20128;-51
2022/07/04 09:39:46;;;;;;;6.97;2.10;;;;;;;22.60;59.58;102032.16;5011263;28;20025;-50
2022/07/04 09:42:12;;;;;;;10.50;2.20;;;;;;;22.77;58.73;102023.53;5015172;28;20436;-50
2022/07/04 09:44:45;;;;;;;6.38;1.77;;;;;;;22.90;57.17;102026.22;5009235;28;20071;-49
2022/07/04 09:47:22;;;;;;;8.27;1.80;;;;;;;22.74;56.88;102035.69;4998338;28;20107;-52
2022/07/04 09:50:08;;;;;;;8.73;1.70;;;;;;;22.63;57.56;102025.47;4996196;28;20037;-52
2022/07/04 09:53:00;;;;;;;10.27;1.90;;;;;;;22.77;57.22;102026.25;4998927;28;20029;-52
2022/07/04 09:55:34;;;;;;;7.15;1.60;;;;;;;22.49;58.40;102027.38;4987006;28;20468;-51
2022/07/04 09:58:01;;;;;;;8.38;1.42;;;;;;;22.12;58.57;102025.06;5001535;28;20028;-51
2022/07/04 10:00:30;;;;;;;5.65;1.58;;;;;;;21.77;58.85;102030.66;5001804;28;20026;-50
2022/07/04 10:02:57;;;;;;;10.07;1.80;;;;;;;21.51;60.00;102033.34;4999566;28;20022;-49
2022/07/04 10:05:27;;;;;;;9.15;1.90;;;;;;;21.49;61.48;102033.56;4997794;28;20057;-51
2022/07/04 10:07:55;;;;;;;11.55;2.08;;;;;;;21.45;61.95;102028.69;4980918;28;20026;-51
2022/07/04 10:10:26;;;;;;;6.57;1.60;;;;;;;21.29;62.36;102029.91;4985639;28;20832;-49
2022/07/04 10:12:53;;;;;;;6.97;1.70;;;;;;;21.26;64.01;102022.16;4998984;28;20025;-50
2022/07/04 10:15:19;;;;;;;4.60;1.70;;;;;;;21.69;64.41;102025.47;4997847;28;20500;-51
2022/07/04 10:17:44;;;;;;;12.43;1.92;;;;;;;22.27;61.44;102021.31;4997139;28;20527;-51
2022/07/04 10:20:11;;;;;;;7.47;2.08;;;;;;;22.60;57.45;102017.72;4999491;28;20041;-51
2022/07/04 10:22:37;;;;;;;4.68;1.60;;;;;;;23.17;57.52;102015.25;4997871;28;20048;-49
2022/07/04 10:25:04;;;;;;;9.23;2.20;;;;;;;23.07;55.85;102013.81;4996703;28;20053;-49
2022/07/04 10:27:30;;;;;;;7.20;1.90;;;;;;;22.71;57.80;102009.72;4998639;28;20041;-51
2022/07/04 10:29:57;;;;;;;9.27;2.10;;;;;;;22.58;58.97;102008.94;4997812;28;20030;-50
2022/07/04 10:32:22;;;;;;;9.27;2.22;;;;;;;22.47;61.02;102003.09;4997620;28;20049;-48
2022/07/04 10:34:48;;;;;;;12.32;2.53;;;;;;;22.26;60.93;102004.13;4980667;28;20029;-51
2022/07/04 10:37:13;;;;;;;7.95;2.20;;;;;;;22.06;60.36;102011.44;4997417;28;20021;-51
2022/07/04 10:39:40;;;;;;;7.13;2.50;;;;;;;21.69;61.43;102013.72;4995768;28;20052;-51
2022/07/04 10:42:06;;;;;;;6.38;2.35;;;;;;;21.50;62.92;102005.31;4998026;28;20064;-48
2022/07/04 10:44:37;;;;;;;10.85;3.03;;;;;;;21.48;64.79;101999.25;4997383;28;20058;-48
2022/07/04 10:47:02;;;;;;;;;;;;;;;21.67;67.28;102005.75;5005590;28;20064;-52
2022/07/04 10:49:28;;;;;;;11.57;4.05;;;;;;;21.53;67.95;102004.91;5013470;28;20344;-48
2022/07/04 10:52:11;;;;;;;11.70;4.13;;;;;;;21.49;69.57;102005.53;5012068;28;20031;-47
2022/07/04 10:54:39;;;;;;;15.10;4.53;;;;;;;21.39;70.68;102001.28;5005714;28;20026;-50
2022/07/04 10:57:19;;;;;;;15.27;4.57;;;;;;;21.22;71.18;102006.25;4998354;28;20022;-50
2022/07/04 11:00:06;;;;;;;15.50;5.10;;;;;;;21.19;72.04;101993.06;4993805;28;20457;-51
2022/07/04 11:02:36;;;;;;;10.68;4.32;;;;;;;21.04;73.47;102005.97;4997598;28;20105;-51
2022/07/04 11:05:06;;;;;;;16.30;4.63;;;;;;;21.09;73.09;102000.78;4996605;28;20039;-50
2022/07/04 11:07:37;;;;;;;11.10;4.68;;;;;;;21.47;72.37;102003.03;4997040;28;20037;-45
2022/07/04 11:12:57;;;;;;;14.55;4.93;;;;;;;21.89;69.94;102003.69;4995378;28;20072;-53
2022/07/04 11:15:28;;;;;;;14.23;4.82;;;;;;;21.84;66.61;101999.94;4991484;28;20077;-46
2022/07/04 11:17:54;;;;;;;;;;;;;;;22.10;67.78;102002.66;4997669;28;20022;-49
2022/07/04 11:20:21;;;;;;;11.82;4.88;;;;;;;22.25;67.08;101991.56;4994848;28;20294;-49
2022/07/04 11:22:47;;;;;;;11.25;5.00;;;;;;;22.71;65.74;101990.66;4994624;28;20091;-50
2022/07/04 11:25:13;;;;;;;15.23;6.50;;;;;;;23.09;64.06;102002.72;4987435;28;20058;-49
2022/07/04 11:27:39;;;;;;;18.27;6.28;;;;;;;23.56;60.11;102002.47;4997204;28;20022;-51
2022/07/04 11:30:04;;;;;;;15.10;6.53;;;;;;;24.04;60.59;102012.00;4996545;28;20465;-50
2022/07/04 11:32:32;;;;;;;10.65;5.22;;;;;;;24.29;58.75;101999.19;4996717;28;20303;-50
2022/07/04 11:34:57;;;;;;;8.05;4.18;;;;;;;24.11;52.82;101999.97;4999576;28;20068;-52